sensor_id;sensor_type;location;lat;lon;timestamp;pressure;altitude;pressure_sealevel;temperature;humidity
54556;BME280;57291;37.520;15.106;2023-06-04T00:02:26;101236.25;;;20.36;94.28
54556;BME280;57291;37.520;15.106;2023-06-04T00:04:54;101222.81;;;20.35;94.06
54556;BME280;57291;37.520;15.106;2023-06-04T00:07:21;101219.94;;;20.31;92.60
54556;BME280;57291;37.520;15.106;2023-06-04T00:09:48;101230.19;;;20.31;92.19
54556;BME280;57291;37.520;15.106;2023-06-04T00:12:15;101226.97;;;20.29;92.24
54556;BME280;57291;37.520;15.106;2023-06-04T00:14:43;101216.28;;;20.27;92.05
54556;BME280;57291;37.520;15.106;2023-06-04T00:17:11;101222.59;;;20.28;92.11
54556;BME280;57291;37.520;15.106;2023-06-04T00:19:38;101215.13;;;20.28;91.68
54556;BME280;57291;37.520;15.106;2023-06-04T00:22:07;101220.97;;;20.27;91.55
54556;BME280;57291;37.520;15.106;2023-06-04T00:24:37;101203.97;;;20.25;90.90
54556;BME280;57291;37.520;15.106;2023-06-04T00:27:06;101210.19;;;20.22;90.65
54556;BME280;57291;37.520;15.106;2023-06-04T00:29:33;101205.72;;;20.17;90.38
54556;BME280;57291;37.520;15.106;2023-06-04T00:32:00;101199.38;;;20.17;90.35
54556;BME280;57291;37.520;15.106;2023-06-04T00:34:28;101206.53;;;20.18;89.56
54556;BME280;57291;37.520;15.106;2023-06-04T00:36:55;101198.47;;;20.12;89.73
54556;BME280;57291;37.520;15.106;2023-06-04T00:39:22;101203.66;;;20.14;89.45
54556;BME280;57291;37.520;15.106;2023-06-04T00:41:49;101198.59;;;20.16;88.66
54556;BME280;57291;37.520;15.106;2023-06-04T00:44:17;101193.31;;;20.11;88.30
54556;BME280;57291;37.520;15.106;2023-06-04T00:46:44;101190.09;;;20.09;88.80
54556;BME280;57291;37.520;15.106;2023-06-04T00:49:12;101188.50;;;20.08;88.73
54556;BME280;57291;37.520;15.106;2023-06-04T00:51:39;101193.22;;;20.07;88.67
54556;BME280;57291;37.520;15.106;2023-06-04T00:54:07;101186.88;;;20.07;88.44
54556;BME280;57291;37.520;15.106;2023-06-04T00:56:36;101195.97;;;20.07;88.21
54556;BME280;57291;37.520;15.106;2023-06-04T00:59:07;101190.78;;;20.06;87.87
54556;BME280;57291;37.520;15.106;2023-06-04T01:04:44;101204.13;;;20.04;87.47
54556;BME280;57291;37.520;15.106;2023-06-04T01:07:14;101198.97;;;20.02;87.21
54556;BME280;57291;37.520;15.106;2023-06-04T01:09:44;101191.38;;;19.99;87.19
54556;BME280;57291;37.520;15.106;2023-06-04T01:12:12;101198.84;;;19.99;87.51
54556;BME280;57291;37.520;15.106;2023-06-04T01:14:40;101200.34;;;19.96;87.46
54556;BME280;57291;37.520;15.106;2023-06-04T01:25:33;101199.09;;;19.94;87.61
54556;BME280;57291;37.520;15.106;2023-06-04T01:28:02;101201.41;;;19.91;87.63
54556;BME280;57291;37.520;15.106;2023-06-04T01:30:34;101191.50;;;19.90;87.43
54556;BME280;57291;37.520;15.106;2023-06-04T01:33:03;101190.25;;;19.88;87.63
54556;BME280;57291;37.520;15.106;2023-06-04T01:35:30;101200.03;;;19.85;87.81
54556;BME280;57291;37.520;15.106;2023-06-04T01:37:58;101195.19;;;19.82;87.88
54556;BME280;57291;37.520;15.106;2023-06-04T01:40:25;101191.19;;;19.80;87.92
54556;BME280;57291;37.520;15.106;2023-06-04T01:42:54;101195.41;;;19.77;88.19
54556;BME280;57291;37.520;15.106;2023-06-04T01:45:22;101197.84;;;19.79;88.35
54556;BME280;57291;37.520;15.106;2023-06-04T01:47:49;101206.56;;;19.81;88.20
54556;BME280;57291;37.520;15.106;2023-06-04T01:50:17;101210.94;;;19.82;87.82
54556;BME280;57291;37.520;15.106;2023-06-04T01:52:44;101209.00;;;19.82;87.70
54556;BME280;57291;37.520;15.106;2023-06-04T01:55:14;101213.03;;;19.85;87.56
54556;BME280;57291;37.520;15.106;2023-06-04T01:57:44;101213.34;;;19.83;87.43
54556;BME280;57291;37.520;15.106;2023-06-04T02:00:12;101206.91;;;19.79;87.18
54556;BME280;57291;37.520;15.106;2023-06-04T02:02:41;101212.06;;;19.81;87.43
54556;BME280;57291;37.520;15.106;2023-06-04T02:05:09;101209.91;;;19.74;87.50
54556;BME280;57291;37.520;15.106;2023-06-04T02:07:42;101209.78;;;19.71;87.64
54556;BME280;57291;37.520;15.106;2023-06-04T02:10:13;101216.00;;;19.67;87.96
54556;BME280;57291;37.520;15.106;2023-06-04T02:12:53;101205.31;;;19.66;87.90
54556;BME280;57291;37.520;15.106;2023-06-04T02:15:22;101210.03;;;19.65;87.82
54556;BME280;57291;37.520;15.106;2023-06-04T02:17:51;101215.56;;;19.65;87.81
54556;BME280;57291;37.520;15.106;2023-06-04T02:20:18;101208.09;;;19.66;87.84
54556;BME280;57291;37.520;15.106;2023-06-04T02:22:45;101212.09;;;19.68;88.02
54556;BME280;57291;37.520;15.106;2023-06-04T02:25:12;101210.47;;;19.67;88.38
54556;BME280;57291;37.520;15.106;2023-06-04T02:27:39;101218.84;;;19.59;88.88
54556;BME280;57291;37.520;15.106;2023-06-04T02:30:07;101215.88;;;19.52;89.51
54556;BME280;57291;37.520;15.106;2023-06-04T02:32:34;101203.47;;;19.45;90.29
54556;BME280;57291;37.520;15.106;2023-06-04T02:35:03;101208.50;;;19.43;90.02
54556;BME280;57291;37.520;15.106;2023-06-04T02:37:31;101205.31;;;19.41;90.70
54556;BME280;57291;37.520;15.106;2023-06-04T02:39:58;101209.19;;;19.40;90.62
54556;BME280;57291;37.520;15.106;2023-06-04T02:42:25;101205.31;;;19.41;91.07
54556;BME280;57291;37.520;15.106;2023-06-04T02:44:52;101203.47;;;19.45;91.92
54556;BME280;57291;37.520;15.106;2023-06-04T02:47:19;101214.69;;;19.40;94.47
54556;BME280;57291;37.520;15.106;2023-06-04T02:49:47;101212.88;;;19.32;95.67
54556;BME280;57291;37.520;15.106;2023-06-04T02:52:14;101210.09;;;19.20;96.02
54556;BME280;57291;37.520;15.106;2023-06-04T02:54:41;101217.31;;;19.12;97.20
54556;BME280;57291;37.520;15.106;2023-06-04T02:57:08;101212.91;;;18.99;98.33
54556;BME280;57291;37.520;15.106;2023-06-04T02:59:35;101217.69;;;18.90;99.20
54556;BME280;57291;37.520;15.106;2023-06-04T03:02:04;101216.50;;;18.79;99.58
54556;BME280;57291;37.520;15.106;2023-06-04T03:04:31;101212.53;;;18.67;100.00
54556;BME280;57291;37.520;15.106;2023-06-04T03:07:02;101220.19;;;18.62;100.00
54556;BME280;57291;37.520;15.106;2023-06-04T03:09:32;101216.19;;;18.59;100.00
54556;BME280;57291;37.520;15.106;2023-06-04T03:12:00;101220.41;;;18.57;100.00
54556;BME280;57291;37.520;15.106;2023-06-04T03:14:30;101218.94;;;18.59;100.00
54556;BME280;57291;37.520;15.106;2023-06-04T03:17:01;101215.03;;;18.60;100.00
54556;BME280;57291;37.520;15.106;2023-06-04T03:19:39;101217.31;;;18.58;100.00
54556;BME280;57291;37.520;15.106;2023-06-04T03:22:08;101211.00;;;18.58;100.00
54556;BME280;57291;37.520;15.106;2023-06-04T03:24:38;101224.28;;;18.56;100.00
54556;BME280;57291;37.520;15.106;2023-06-04T03:27:08;101221.91;;;18.54;100.00
54556;BME280;57291;37.520;15.106;2023-06-04T03:29:37;101221.09;;;18.54;100.00
54556;BME280;57291;37.520;15.106;2023-06-04T03:32:06;101221.22;;;18.57;100.00
54556;BME280;57291;37.520;15.106;2023-06-04T03:34:34;101218.94;;;18.59;100.00
54556;BME280;57291;37.520;15.106;2023-06-04T03:37:02;101217.44;;;18.62;100.00
54556;BME280;57291;37.520;15.106;2023-06-04T03:39:31;101218.25;;;18.62;100.00
54556;BME280;57291;37.520;15.106;2023-06-04T03:42:00;101218.94;;;18.59;100.00
54556;BME280;57291;37.520;15.106;2023-06-04T03:44:29;101219.63;;;18.56;100.00
54556;BME280;57291;37.520;15.106;2023-06-04T03:46:56;101219.63;;;18.56;100.00
54556;BME280;57291;37.520;15.106;2023-06-04T03:49:23;101217.31;;;18.58;100.00
54556;BME280;57291;37.520;15.106;2023-06-04T03:51:51;101218.59;;;18.61;100.00
54556;BME280;57291;37.520;15.106;2023-06-04T03:54:20;101206.09;;;18.63;100.00
54556;BME280;57291;37.520;15.106;2023-06-04T03:56:49;101219.88;;;18.63;100.00
54556;BME280;57291;37.520;15.106;2023-06-04T03:59:16;101218.03;;;18.67;100.00
54556;BME280;57291;37.520;15.106;2023-06-04T04:01:45;101217.06;;;18.72;100.00
54556;BME280;57291;37.520;15.106;2023-06-04T04:04:12;101210.31;;;18.82;100.00
54556;BME280;57291;37.520;15.106;2023-06-04T04:06:39;101214.16;;;18.89;100.00
54556;BME280;57291;37.520;15.106;2023-06-04T04:09:09;101216.09;;;18.89;100.00
54556;BME280;57291;37.520;15.106;2023-06-04T04:11:36;101225.63;;;18.91;100.00
54556;BME280;57291;37.520;15.106;2023-06-04T04:14:04;101219.44;;;18.94;100.00
54556;BME280;57291;37.520;15.106;2023-06-04T04:16:32;101229.75;;;18.97;99.56
54556;BME280;57291;37.520;15.106;2023-06-04T04:18:59;101233.44;;;19.02;98.13
54556;BME280;57291;37.520;15.106;2023-06-04T04:21:26;101236.00;;;19.07;97.89
54556;BME280;57291;37.520;15.106;2023-06-04T04:23:54;101244.97;;;19.16;97.47
54556;BME280;57291;37.520;15.106;2023-06-04T04:26:22;101239.25;;;19.21;96.71
54556;BME280;57291;37.520;15.106;2023-06-04T04:28:54;101236.03;;;19.31;96.01
54556;BME280;57291;37.520;15.106;2023-06-04T04:31:27;101236.06;;;19.43;96.65
54556;BME280;57291;37.520;15.106;2023-06-04T04:33:55;101237.81;;;19.48;96.57
54556;BME280;57291;37.520;15.106;2023-06-04T04:36:23;101239.63;;;19.56;97.50
54556;BME280;57291;37.520;15.106;2023-06-04T04:38:51;101237.47;;;19.62;96.59
54556;BME280;57291;37.520;15.106;2023-06-04T04:41:28;101238.63;;;19.73;96.31
54556;BME280;57291;37.520;15.106;2023-06-04T04:44:03;101234.28;;;19.84;94.38
54556;BME280;57291;37.520;15.106;2023-06-04T04:46:31;101219.91;;;19.79;94.31
54556;BME280;57291;37.520;15.106;2023-06-04T04:48:58;101222.66;;;19.91;94.21
54556;BME280;57291;37.520;15.106;2023-06-04T04:51:26;101221.72;;;20.11;94.20
54556;BME280;57291;37.520;15.106;2023-06-04T04:53:54;101222.38;;;20.21;93.88
54556;BME280;57291;37.520;15.106;2023-06-04T04:56:23;101214.41;;;20.31;93.55
54556;BME280;57291;37.520;15.106;2023-06-04T04:58:51;101225.16;;;20.49;93.05
54556;BME280;57291;37.520;15.106;2023-06-04T05:01:19;101230.91;;;20.56;90.23
54556;BME280;57291;37.520;15.106;2023-06-04T05:03:48;101225.72;;;20.67;90.66
54556;BME280;57291;37.520;15.106;2023-06-04T05:06:16;101231.28;;;20.82;89.14
54556;BME280;57291;37.520;15.106;2023-06-04T05:08:43;101235.16;;;20.94;88.58
54556;BME280;57291;37.520;15.106;2023-06-04T05:11:12;101225.66;;;20.79;88.54
54556;BME280;57291;37.520;15.106;2023-06-04T05:13:41;101226.44;;;20.79;89.14
54556;BME280;57291;37.520;15.106;2023-06-04T05:16:10;101230.50;;;20.98;88.51
54556;BME280;57291;37.520;15.106;2023-06-04T05:18:41;101228.22;;;21.16;87.98
54556;BME280;57291;37.520;15.106;2023-06-04T05:21:11;101226.63;;;21.30;87.16
54556;BME280;57291;37.520;15.106;2023-06-04T05:23:44;101234.88;;;21.43;85.49
54556;BME280;57291;37.520;15.106;2023-06-04T05:26:18;101243.53;;;21.57;84.68
54556;BME280;57291;37.520;15.106;2023-06-04T05:28:51;101239.31;;;21.63;82.87
54556;BME280;57291;37.520;15.106;2023-06-04T05:31:18;101246.75;;;21.59;81.83
54556;BME280;57291;37.520;15.106;2023-06-04T05:33:46;101240.03;;;21.60;81.93
54556;BME280;57291;37.520;15.106;2023-06-04T05:36:19;101249.06;;;21.57;82.22
54556;BME280;57291;37.520;15.106;2023-06-04T05:38:52;101256.09;;;21.54;82.18
54556;BME280;57291;37.520;15.106;2023-06-04T05:41:30;101254.03;;;21.51;81.63
54556;BME280;57291;37.520;15.106;2023-06-04T05:44:00;101256.81;;;21.51;80.81
54556;BME280;57291;37.520;15.106;2023-06-04T05:46:28;101264.66;;;21.49;80.90
54556;BME280;57291;37.520;15.106;2023-06-04T05:48:55;101276.72;;;21.57;80.80
54556;BME280;57291;37.520;15.106;2023-06-04T05:51:23;101285.50;;;21.94;80.00
54556;BME280;57291;37.520;15.106;2023-06-04T05:53:51;101284.56;;;22.38;77.56
54556;BME280;57291;37.520;15.106;2023-06-04T05:56:18;101280.13;;;22.91;75.16
54556;BME280;57291;37.520;15.106;2023-06-04T05:58:51;101287.94;;;23.48;72.93
54556;BME280;57291;37.520;15.106;2023-06-04T06:01:21;101290.31;;;23.95;71.11
54556;BME280;57291;37.520;15.106;2023-06-04T06:03:49;101287.50;;;24.45;69.06
54556;BME280;57291;37.520;15.106;2023-06-04T06:06:19;101292.97;;;25.01;66.22
54556;BME280;57291;37.520;15.106;2023-06-04T06:08:48;101298.22;;;25.44;63.83
54556;BME280;57291;37.520;15.106;2023-06-04T06:11:17;101290.69;;;25.96;61.49
54556;BME280;57291;37.520;15.106;2023-06-04T06:13:44;101286.97;;;26.36;60.37
54556;BME280;57291;37.520;15.106;2023-06-04T06:16:13;101289.09;;;26.54;59.27
54556;BME280;57291;37.520;15.106;2023-06-04T06:18:40;101286.00;;;26.80;58.00
54556;BME280;57291;37.520;15.106;2023-06-04T06:21:07;101292.81;;;26.97;56.96
54556;BME280;57291;37.520;15.106;2023-06-04T06:23:35;101306.81;;;26.24;59.29
54556;BME280;57291;37.520;15.106;2023-06-04T06:26:03;101317.88;;;26.79;58.16
54556;BME280;57291;37.520;15.106;2023-06-04T06:28:43;101315.97;;;27.05;57.68
54556;BME280;57291;37.520;15.106;2023-06-04T06:31:11;101306.72;;;26.79;57.74
54556;BME280;57291;37.520;15.106;2023-06-04T06:33:38;101309.41;;;26.58;58.04
54556;BME280;57291;37.520;15.106;2023-06-04T06:36:10;101305.38;;;26.48;58.04
54556;BME280;57291;37.520;15.106;2023-06-04T06:38:39;101319.25;;;26.44;58.24
54556;BME280;57291;37.520;15.106;2023-06-04T06:41:07;101317.97;;;26.28;60.42
54556;BME280;57291;37.520;15.106;2023-06-04T06:43:35;101317.09;;;26.13;60.33
54556;BME280;57291;37.520;15.106;2023-06-04T06:46:02;101314.31;;;26.13;60.84
54556;BME280;57291;37.520;15.106;2023-06-04T06:48:29;101316.75;;;26.25;60.39
54556;BME280;57291;37.520;15.106;2023-06-04T06:50:56;101319.81;;;26.09;61.46
54556;BME280;57291;37.520;15.106;2023-06-04T06:53:24;101326.81;;;25.85;62.61
54556;BME280;57291;37.520;15.106;2023-06-04T06:55:51;101323.25;;;25.85;62.86
54556;BME280;57291;37.520;15.106;2023-06-04T06:58:18;101331.63;;;25.88;64.11
54556;BME280;57291;37.520;15.106;2023-06-04T07:00:45;101334.06;;;25.93;63.04
54556;BME280;57291;37.520;15.106;2023-06-04T07:03:12;101338.47;;;25.54;64.94
54556;BME280;57291;37.520;15.106;2023-06-04T07:05:39;101342.91;;;25.65;64.40
54556;BME280;57291;37.520;15.106;2023-06-04T07:08:07;101330.03;;;25.50;65.10
54556;BME280;57291;37.520;15.106;2023-06-04T07:10:34;101335.28;;;25.55;65.46
54556;BME280;57291;37.520;15.106;2023-06-04T07:13:01;101334.69;;;25.35;66.05
54556;BME280;57291;37.520;15.106;2023-06-04T07:15:28;101337.75;;;25.26;67.10
54556;BME280;57291;37.520;15.106;2023-06-04T07:17:55;101327.53;;;25.34;67.13
54556;BME280;57291;37.520;15.106;2023-06-04T07:20:22;101331.59;;;25.44;67.36
54556;BME280;57291;37.520;15.106;2023-06-04T07:22:50;101338.34;;;25.46;66.73
54556;BME280;57291;37.520;15.106;2023-06-04T07:25:17;101332.50;;;25.55;67.53
54556;BME280;57291;37.520;15.106;2023-06-04T07:27:44;101336.63;;;25.72;65.74
54556;BME280;57291;37.520;15.106;2023-06-04T07:30:12;101345.16;;;25.90;65.76
54556;BME280;57291;37.520;15.106;2023-06-04T07:32:39;101341.63;;;25.93;65.67
54556;BME280;57291;37.520;15.106;2023-06-04T07:35:07;101349.66;;;26.09;64.24
54556;BME280;57291;37.520;15.106;2023-06-04T07:37:34;101341.75;;;26.14;63.81
54556;BME280;57291;37.520;15.106;2023-06-04T07:40:02;101342.06;;;26.02;63.60
54556;BME280;57291;37.520;15.106;2023-06-04T07:42:30;101343.84;;;25.77;63.73
54556;BME280;57291;37.520;15.106;2023-06-04T07:44:58;101338.56;;;25.68;64.31
54556;BME280;57291;37.520;15.106;2023-06-04T07:47:25;101346.97;;;25.71;63.60
54556;BME280;57291;37.520;15.106;2023-06-04T07:49:52;101340.13;;;26.06;63.25
54556;BME280;57291;37.520;15.106;2023-06-04T07:52:29;101336.94;;;26.08;62.45
54556;BME280;57291;37.520;15.106;2023-06-04T07:54:56;101330.72;;;25.77;63.92
54556;BME280;57291;37.520;15.106;2023-06-04T07:57:23;101332.28;;;25.74;64.05
54556;BME280;57291;37.520;15.106;2023-06-04T07:59:51;101331.56;;;25.81;64.30
54556;BME280;57291;37.520;15.106;2023-06-04T08:02:18;101336.00;;;25.89;62.32
54556;BME280;57291;37.520;15.106;2023-06-04T08:04:46;101335.88;;;25.79;63.82
54556;BME280;57291;37.520;15.106;2023-06-04T08:07:14;101329.50;;;25.74;63.80
54556;BME280;57291;37.520;15.106;2023-06-04T08:09:41;101331.22;;;25.49;66.04
54556;BME280;57291;37.520;15.106;2023-06-04T08:12:10;101338.31;;;25.80;63.01
54556;BME280;57291;37.520;15.106;2023-06-04T08:14:38;101338.22;;;25.73;61.98
54556;BME280;57291;37.520;15.106;2023-06-04T08:17:05;101341.13;;;25.84;62.56
54556;BME280;57291;37.520;15.106;2023-06-04T08:19:32;101337.94;;;25.85;61.10
54556;BME280;57291;37.520;15.106;2023-06-04T08:22:00;101343.19;;;25.94;61.74
54556;BME280;57291;37.520;15.106;2023-06-04T08:24:27;101334.19;;;25.67;60.15
54556;BME280;57291;37.520;15.106;2023-06-04T08:26:54;101344.16;;;25.71;59.79
54556;BME280;57291;37.520;15.106;2023-06-04T08:29:21;101336.72;;;25.83;59.87
54556;BME280;57291;37.520;15.106;2023-06-04T08:31:49;101343.72;;;25.66;60.18
54556;BME280;57291;37.520;15.106;2023-06-04T08:34:16;101339.00;;;25.70;59.67
54556;BME280;57291;37.520;15.106;2023-06-04T08:36:43;101346.19;;;25.74;60.29
54556;BME280;57291;37.520;15.106;2023-06-04T08:39:11;101348.81;;;25.98;59.16
54556;BME280;57291;37.520;15.106;2023-06-04T08:41:44;101369.66;;;26.18;59.62
54556;BME280;57291;37.520;15.106;2023-06-04T08:44:12;101381.31;;;26.38;57.29
54556;BME280;57291;37.520;15.106;2023-06-04T08:46:40;101382.75;;;26.69;55.59
54556;BME280;57291;37.520;15.106;2023-06-04T08:49:07;101388.31;;;26.69;55.47
54556;BME280;57291;37.520;15.106;2023-06-04T08:51:36;101388.25;;;26.62;56.18
54556;BME280;57291;37.520;15.106;2023-06-04T08:54:08;101385.84;;;26.53;56.63
54556;BME280;57291;37.520;15.106;2023-06-04T08:56:37;101384.19;;;26.49;57.15
54556;BME280;57291;37.520;15.106;2023-06-04T08:59:06;101391.69;;;26.37;56.80
54556;BME280;57291;37.520;15.106;2023-06-04T09:01:35;101385.53;;;26.14;59.43
54556;BME280;57291;37.520;15.106;2023-06-04T09:04:06;101381.81;;;25.99;60.32
54556;BME280;57291;37.520;15.106;2023-06-04T09:06:39;101386.72;;;25.72;59.01
54556;BME280;57291;37.520;15.106;2023-06-04T09:09:09;101388.91;;;25.89;58.75
54556;BME280;57291;37.520;15.106;2023-06-04T09:11:53;101397.38;;;26.04;58.63
54556;BME280;57291;37.520;15.106;2023-06-04T09:14:20;101392.13;;;25.95;59.37
54556;BME280;57291;37.520;15.106;2023-06-04T09:16:52;101383.94;;;25.72;59.51
54556;BME280;57291;37.520;15.106;2023-06-04T09:19:21;101386.88;;;25.49;61.35
54556;BME280;57291;37.520;15.106;2023-06-04T09:21:51;101381.66;;;25.40;64.29
54556;BME280;57291;37.520;15.106;2023-06-04T09:24:19;101385.09;;;25.30;64.08
54556;BME280;57291;37.520;15.106;2023-06-04T09:26:48;101383.63;;;25.10;65.38
54556;BME280;57291;37.520;15.106;2023-06-04T09:29:16;101396.00;;;24.82;66.97
54556;BME280;57291;37.520;15.106;2023-06-04T09:31:57;101383.97;;;24.74;66.24
54556;BME280;57291;37.520;15.106;2023-06-04T09:34:29;101381.41;;;24.36;66.29
54556;BME280;57291;37.520;15.106;2023-06-04T09:36:57;101384.97;;;24.09;69.75
54556;BME280;57291;37.520;15.106;2023-06-04T09:39:25;101379.72;;;23.81;71.17
54556;BME280;57291;37.520;15.106;2023-06-04T09:42:00;101383.13;;;23.52;72.67
54556;BME280;57291;37.520;15.106;2023-06-04T09:44:29;101383.50;;;23.50;72.68
54556;BME280;57291;37.520;15.106;2023-06-04T09:46:57;101393.41;;;23.51;73.27
54556;BME280;57291;37.520;15.106;2023-06-04T09:49:25;101391.09;;;23.34;73.54
54556;BME280;57291;37.520;15.106;2023-06-04T09:51:52;101383.81;;;23.26;75.55
54556;BME280;57291;37.520;15.106;2023-06-04T09:54:20;101394.47;;;23.24;76.32
54556;BME280;57291;37.520;15.106;2023-06-04T09:56:47;101401.16;;;23.23;78.15
54556;BME280;57291;37.520;15.106;2023-06-04T09:59:14;101393.28;;;23.25;76.75
54556;BME280;57291;37.520;15.106;2023-06-04T10:01:41;101400.50;;;23.49;77.13
54556;BME280;57291;37.520;15.106;2023-06-04T10:04:11;101400.56;;;23.72;76.23
54556;BME280;57291;37.520;15.106;2023-06-04T10:06:41;101403.66;;;23.90;76.09
54556;BME280;57291;37.520;15.106;2023-06-04T10:09:09;101413.41;;;24.03;76.45
54556;BME280;57291;37.520;15.106;2023-06-04T10:11:40;101405.13;;;24.06;75.96
54556;BME280;57291;37.520;15.106;2023-06-04T10:14:22;101408.41;;;24.12;75.70
54556;BME280;57291;37.520;15.106;2023-06-04T10:16:52;101416.75;;;23.89;77.13
54556;BME280;57291;37.520;15.106;2023-06-04T10:19:20;101414.72;;;23.86;78.03
54556;BME280;57291;37.520;15.106;2023-06-04T10:21:50;101410.91;;;23.75;78.30
54556;BME280;57291;37.520;15.106;2023-06-04T10:24:17;101412.72;;;23.86;78.08
54556;BME280;57291;37.520;15.106;2023-06-04T10:26:47;101406.50;;;23.93;77.28
54556;BME280;57291;37.520;15.106;2023-06-04T10:29:15;101398.06;;;24.09;76.86
54556;BME280;57291;37.520;15.106;2023-06-04T10:31:44;101401.81;;;23.97;75.73
54556;BME280;57291;37.520;15.106;2023-06-04T10:34:12;101391.88;;;23.73;76.68
54556;BME280;57291;37.520;15.106;2023-06-04T10:36:44;101392.69;;;23.54;76.65
54556;BME280;57291;37.520;15.106;2023-06-04T10:39:13;101385.16;;;23.55;77.26
54556;BME280;57291;37.520;15.106;2023-06-04T10:41:40;101379.66;;;23.58;78.40
54556;BME280;57291;37.520;15.106;2023-06-04T10:44:08;101389.00;;;23.89;78.49
54556;BME280;57291;37.520;15.106;2023-06-04T10:46:41;101389.84;;;24.16;77.54
54556;BME280;57291;37.520;15.106;2023-06-04T10:49:10;101387.06;;;24.16;77.13
54556;BME280;57291;37.520;15.106;2023-06-04T10:51:39;101387.13;;;23.97;78.48
54556;BME280;57291;37.520;15.106;2023-06-04T10:54:06;101391.94;;;23.77;80.43
54556;BME280;57291;37.520;15.106;2023-06-04T10:56:34;101378.41;;;23.75;81.74
54556;BME280;57291;37.520;15.106;2023-06-04T10:59:13;101377.25;;;23.99;80.60
54556;BME280;57291;37.520;15.106;2023-06-04T11:01:41;101381.75;;;24.07;80.05
54556;BME280;57291;37.520;15.106;2023-06-04T11:04:22;101367.81;;;24.30;79.27
54556;BME280;57291;37.520;15.106;2023-06-04T11:07:07;101372.97;;;24.28;77.79
54556;BME280;57291;37.520;15.106;2023-06-04T11:09:47;101366.28;;;24.06;78.72
54556;BME280;57291;37.520;15.106;2023-06-04T11:12:15;101370.84;;;24.22;78.98
54556;BME280;57291;37.520;15.106;2023-06-04T11:15:02;101375.88;;;24.13;78.94
54556;BME280;57291;37.520;15.106;2023-06-04T11:17:30;101372.50;;;24.00;79.67
54556;BME280;57291;37.520;15.106;2023-06-04T11:19:57;101365.50;;;23.83;81.02
54556;BME280;57291;37.520;15.106;2023-06-04T11:22:27;101363.19;;;23.88;80.86
54556;BME280;57291;37.520;15.106;2023-06-04T11:24:58;101374.91;;;24.01;81.96
54556;BME280;57291;37.520;15.106;2023-06-04T11:27:26;101372.56;;;24.03;81.53
54556;BME280;57291;37.520;15.106;2023-06-04T11:30:03;101366.84;;;23.93;82.68
54556;BME280;57291;37.520;15.106;2023-06-04T11:32:32;101360.13;;;23.71;83.65
54556;BME280;57291;37.520;15.106;2023-06-04T11:35:05;101371.47;;;23.65;85.30
54556;BME280;57291;37.520;15.106;2023-06-04T11:37:38;101366.97;;;23.77;85.32
54556;BME280;57291;37.520;15.106;2023-06-04T11:40:18;101366.53;;;23.55;87.42
54556;BME280;57291;37.520;15.106;2023-06-04T11:42:47;101364.66;;;23.59;88.30
54556;BME280;57291;37.520;15.106;2023-06-04T11:45:18;101362.34;;;23.65;88.73
54556;BME280;57291;37.520;15.106;2023-06-04T11:47:54;101357.28;;;23.90;87.89
54556;BME280;57291;37.520;15.106;2023-06-04T11:50:26;101358.13;;;23.94;87.46
54556;BME280;57291;37.520;15.106;2023-06-04T11:52:53;101353.28;;;24.14;86.95
54556;BME280;57291;37.520;15.106;2023-06-04T11:55:21;101362.06;;;24.16;86.56
54556;BME280;57291;37.520;15.106;2023-06-04T11:57:50;101341.53;;;23.98;87.35
54556;BME280;57291;37.520;15.106;2023-06-04T12:00:18;101348.13;;;24.13;87.22
54556;BME280;57291;37.520;15.106;2023-06-04T12:02:54;101345.00;;;24.18;87.59
54556;BME280;57291;37.520;15.106;2023-06-04T12:05:23;101348.91;;;24.13;87.72
54556;BME280;57291;37.520;15.106;2023-06-04T12:08:08;101336.66;;;23.91;87.81
54556;BME280;57291;37.520;15.106;2023-06-04T12:10:40;101333.34;;;23.82;88.50
54556;BME280;57291;37.520;15.106;2023-06-04T12:13:09;101330.69;;;23.66;88.90
54556;BME280;57291;37.520;15.106;2023-06-04T12:15:36;101332.53;;;23.81;89.94
54556;BME280;57291;37.520;15.106;2023-06-04T12:18:04;101342.28;;;23.72;89.91
54556;BME280;57291;37.520;15.106;2023-06-04T12:20:36;101322.91;;;23.75;90.02
54556;BME280;57291;37.520;15.106;2023-06-04T12:23:04;101322.16;;;23.55;90.47
54556;BME280;57291;37.520;15.106;2023-06-04T12:25:34;101328.25;;;23.64;90.96
54556;BME280;57291;37.520;15.106;2023-06-04T12:28:05;101333.53;;;23.70;90.72
54556;BME280;57291;37.520;15.106;2023-06-04T12:30:39;101334.59;;;23.65;90.95
54556;BME280;57291;37.520;15.106;2023-06-04T12:33:07;101328.41;;;23.72;91.19
54556;BME280;57291;37.520;15.106;2023-06-04T12:35:35;101334.28;;;23.90;90.53
54556;BME280;57291;37.520;15.106;2023-06-04T12:38:04;101333.19;;;23.98;89.70
54556;BME280;57291;37.520;15.106;2023-06-04T12:40:32;101337.66;;;24.02;89.74
54556;BME280;57291;37.520;15.106;2023-06-04T12:42:59;101328.47;;;23.75;89.94
54556;BME280;57291;37.520;15.106;2023-06-04T12:45:27;101330.03;;;23.73;90.60
54556;BME280;57291;37.520;15.106;2023-06-04T12:47:54;101340.88;;;23.81;90.70
54556;BME280;57291;37.520;15.106;2023-06-04T12:50:21;101337.41;;;23.88;90.57
54556;BME280;57291;37.520;15.106;2023-06-04T12:52:49;101341.41;;;23.91;89.12
54556;BME280;57291;37.520;15.106;2023-06-04T12:55:16;101340.16;;;23.65;90.36
54556;BME280;57291;37.520;15.106;2023-06-04T12:57:44;101344.84;;;23.61;90.38
54556;BME280;57291;37.520;15.106;2023-06-04T13:00:11;101346.41;;;23.39;91.58